Flight Track Log - Related Links

Times and Time Zones

All times are in EST time to prevent confusion due to time zone crossing. See the N425EM flight status page for this flight to view local times or setup timezone preferences in your user account.

Time Position Orientation Groundspeed Altitude Reporting Facility
EST Latitude Longitude Course Direction KTS MPH feet Rate Location/Type
Sun 10:40:54 AM 34.0756 -85.9700 50° Northeast 173 199 5,100  Level Atlanta Center
Sun 10:41:54 AM 34.1117 -85.9231 47° Northeast 185 213 6,500 1,600 Climbing Atlanta Center
Sun 10:42:54 AM 34.1458 -85.8836 44° Northeast 177 204 8,300 1,750 Climbing Atlanta Center
Sun 10:43:54 AM 34.1797 -85.8442 44° Northeast 172 198 10,000 1,600 Climbing Atlanta Center
Sun 10:44:54 AM 34.2158 -85.7972 47° Northeast 166 191 11,500 1,450 Climbing Atlanta Center
Sun 10:45:00 AM 34.2310 -85.7539 50° Northeast  Level Estimated
Sun 10:45:54 AM 34.2539 -85.7553 42° Northeast 177 204 12,900  Level Atlanta Center
Sun 10:46:54 AM 34.2839 -85.7106 51° Northeast 171 197 14,100 1,050 Climbing Atlanta Center
Sun 10:47:54 AM 34.3200 -85.6686 44° Northeast 179 206 15,000 1,050 Climbing Atlanta Center
Sun 10:48:54 AM 34.3581 -85.6139 50° Northeast 197 227 16,200 1,300 Climbing Atlanta Center
Sun 10:49:54 AM 34.3964 -85.5619 48° Northeast 208 239 17,600 1,050 Climbing Atlanta Center
Sun 10:50:54 AM 34.4389 -85.5072 47° Northeast 208 239 18,300 700 Climbing Atlanta Center
Sun 10:51:54 AM 34.4769 -85.4525 50° Northeast 208 239 19,000 600 Climbing Atlanta Center
Sun 10:52:54 AM 34.5275 -85.4028 39° Northeast 213 245 19,500 700 Climbing Atlanta Center
Sun 10:53:54 AM 34.5700 -85.3431 49° Northeast 219 252 20,400 900 Climbing Atlanta Center
Sun 10:54:54 AM 34.6122 -85.2881 47° Northeast 219 252 21,300 900 Climbing Atlanta Center
Sun 10:55:54 AM 34.6567 -85.2333 45° Northeast 219 252 22,200 800 Climbing Atlanta Center
Sun 10:56:54 AM 34.6989 -85.1808 46° Northeast 219 252 22,900 400 Climbing Atlanta Center
Sun 10:57:54 AM 34.7433 -85.1181 49° Northeast 224 258 23,000 50 Climbing Atlanta Center
Sun 10:58:54 AM 34.7919 -85.0581 45° Northeast 235 270 23,000  Level Atlanta Center
Sun 10:59:54 AM 34.8383 -84.9928 49° Northeast 243 280 23,000  Level Atlanta Center
Sun 11:00:54 AM 34.8889 -84.9250 48° Northeast 248 285 23,000  Level Atlanta Center
Sun 11:01:54 AM 34.9372 -84.8597 48° Northeast 248 285 23,000  Level Atlanta Center
Sun 11:02:54 AM 34.9858 -84.7917 49° Northeast 258 297 23,000  Level Atlanta Center
Sun 11:03:54 AM 35.0342 -84.7261 48° Northeast 258 297 23,000  Level Atlanta Center
Sun 11:04:54 AM 35.0844 -84.6606 47° Northeast 258 297 23,000  Level Atlanta Center
Sun 11:05:54 AM 35.1328 -84.5925 49° Northeast 263 303 23,000  Level Atlanta Center
Sun 11:06:54 AM 35.1833 -84.5267 47° Northeast 263 303 23,000  Level Atlanta Center
Sun 11:07:54 AM 35.2336 -84.4583 48° Northeast 263 303 23,000  Level Atlanta Center
Sun 11:08:54 AM 35.2839 -84.3900 48° Northeast 263 303 23,000  Level Atlanta Center
Sun 11:09:54 AM 35.3319 -84.3214 49° Northeast 263 303 23,000  Level Atlanta Center
Sun 11:10:54 AM 35.3822 -84.2553 47° Northeast 263 303 23,000  Level Atlanta Center
Sun 11:11:54 AM 35.4303 -84.1867 49° Northeast 263 303 23,000  Level Atlanta Center
Sun 11:12:54 AM 35.4825 -84.1203 46° Northeast 263 303 23,000  Level Atlanta Center
Sun 11:13:54 AM 35.5325 -84.0489 49° Northeast 263 303 23,000  Level Atlanta Center
Sun 11:14:54 AM 35.5828 -83.9825 47° Northeast 263 303 23,000  Level Atlanta Center
Sun 11:15:54 AM 35.6306 -83.9136 50° Northeast 263 303 23,000  Level Atlanta Center
Sun 11:16:54 AM 35.6806 -83.8444 48° Northeast 263 303 23,000  Level Atlanta Center
Sun 11:17:54 AM 35.7306 -83.7753 48° Northeast 263 303 23,000  Level Atlanta Center
Sun 11:18:54 AM 35.7783 -83.7086 49° Northeast 263 303 23,000  Level Atlanta Center
Sun 11:19:54 AM 35.8281 -83.6392 49° Northeast 263 303 23,000  Level Atlanta Center
Sun 11:20:54 AM 35.8758 -83.5722 49° Northeast 263 303 23,000  Level Atlanta Center
Sun 11:21:54 AM 35.9278 -83.5053 46° Northeast 263 303 23,000  Level Atlanta Center
Sun 11:22:54 AM 35.9733 -83.4333 52° Northeast 263 303 23,000  Level Atlanta Center
Sun 11:23:54 AM 36.0272 -83.3636 46° Northeast 268 308 23,000  Level Atlanta Center
Sun 11:24:54 AM 36.0747 -83.2911 51° Northeast 268 308 23,000  Level Atlanta Center
Sun 11:25:54 AM 36.1244 -83.2239 48° Northeast 263 303 23,000  Level Atlanta Center
Sun 11:26:54 AM 36.1719 -83.1514 51° Northeast 263 303 23,000  Level Atlanta Center
Sun 11:27:54 AM 36.2256 -83.0786 48° Northeast 268 308 23,000  Level Atlanta Center
Sun 11:28:54 AM 36.2731 -83.0086 50° Northeast 268 308 23,000  Level Atlanta Center
Sun 11:29:54 AM 36.3244 -82.9383 48° Northeast 268 308 23,000  Level Atlanta Center
Sun 11:30:54 AM 36.3739 -82.8681 49° Northeast 268 308 23,000  Level Atlanta Center
Sun 11:31:54 AM 36.4233 -82.7950 50° Northeast 268 308 23,000  Level Atlanta Center
Sun 11:32:54 AM 36.4725 -82.7247 49° Northeast 268 308 23,000  Level Atlanta Center
Sun 11:34:28 AM 36.5564 -82.6075 48° Northeast 272 313 23,000  Level Indianapolis Center
Sun 11:35:30 AM 36.6056 -82.5364 49° Northeast 272 313 23,000  Level Indianapolis Center
Sun 11:36:32 AM 36.6564 -82.4639 49° Northeast 278 320 23,000  Level Indianapolis Center
Sun 11:37:33 AM 36.7056 -82.3897 50° Northeast 278 320 23,000  Level Indianapolis Center
Sun 11:38:35 AM 36.7567 -82.3169 49° Northeast 278 320 23,000  Level Indianapolis Center
Sun 11:39:37 AM 36.8183 -82.2283 49° Northeast 288 331 23,000  Level Indianapolis Center
Sun 11:40:38 AM 36.8708 -82.1569 47° Northeast 282 325 23,000  Level Indianapolis Center
Sun 11:41:40 AM 36.9197 -82.0811 51° Northeast 280 322 23,000  Level Indianapolis Center
Sun 11:42:42 AM 36.9678 -82.0136 48° Northeast 265 305 23,000  Level Indianapolis Center
Sun 11:43:44 AM 37.0153 -81.9419 50° Northeast 268 308 23,000  Level Indianapolis Center
Sun 11:44:45 AM 37.0644 -81.8722 49° Northeast 267 307 23,000  Level Indianapolis Center
Sun 11:45:47 AM 37.1217 -81.7889 49° Northeast 270 311 23,000  Level Indianapolis Center
Sun 11:46:49 AM 37.1703 -81.7172 50° Northeast 270 311 23,000  Level Indianapolis Center
Sun 11:47:50 AM 37.2181 -81.6450 50° Northeast 268 308 23,000  Level Indianapolis Center
Sun 11:48:52 AM 37.2675 -81.5722 49° Northeast 273 314 23,000  Level Indianapolis Center
Sun 11:49:54 AM 37.3181 -81.4950 51° Northeast 275 316 23,000  Level Indianapolis Center
Sun 11:50:55 AM 37.3661 -81.4236 50° Northeast 275 316 23,000  Level Indianapolis Center
Sun 11:51:57 AM 37.4144 -81.3503 50° Northeast 279 321 23,000  Level Indianapolis Center
Sun 11:52:59 AM 37.4717 -81.2642 50° Northeast 277 319 23,000  Level Indianapolis Center
Sun 11:54:00 AM 37.5206 -81.1928 49° Northeast 277 319 23,000  Level Indianapolis Center
Sun 11:55:02 AM 37.5683 -81.1197 50° Northeast 277 319 23,000  Level Indianapolis Center
Sun 11:56:04 AM 37.6167 -81.0467 50° Northeast 278 320 23,000  Level Indianapolis Center
Sun 11:57:06 AM 37.6744 -80.9561 51° Northeast 283 326 23,000  Level Indianapolis Center
Sun 11:58:07 AM 37.7244 -80.8839 49° Northeast 280 322 23,000  Level Indianapolis Center
Sun 11:59:09 AM 37.7719 -80.8078 52° Northeast 282 325 23,000  Level Indianapolis Center
Sun 12:00:11 PM 37.8222 -80.7378 48° Northeast 278 320 23,000  Level Indianapolis Center
Sun 12:01:13 PM 37.8806 -80.6453 51° Northeast 282 325 23,000  Level Indianapolis Center
Sun 12:02:14 PM 37.9306 -80.5717 49° Northeast 277 319 23,000  Level Indianapolis Center
Sun 12:03:03 PM 37.9636 -80.5200 51° Northeast 270 311 23,000  Level Washington Center
Sun 12:04:04 PM 38.0125 -80.4442 51° Northeast 270 311 23,000  Level Washington Center
Sun 12:05:04 PM 38.0636 -80.3683 49° Northeast 270 311 23,000  Level Washington Center
Sun 12:06:02 PM 38.1125 -80.2894 52° Northeast 270 311 23,000  Level Washington Center
Sun 12:07:03 PM 38.1700 -80.2061 49° Northeast 270 311 23,000  Level Washington Center
Sun 12:08:03 PM 38.2169 -80.1269 53° Northeast 275 316 23,000  Level Washington Center
Sun 12:09:03 PM 38.2675 -80.0533 49° Northeast 275 316 23,000  Level Washington Center
Sun 12:10:04 PM 38.3142 -79.9794 51° Northeast 270 311 23,000  Level Washington Center
Sun 12:11:02 PM 38.3647 -79.9056 49° Northeast 270 311 23,000  Level Washington Center
Sun 12:12:04 PM 38.4069 -79.8339 53° Northeast 270 311 23,000  Level Washington Center
Sun 12:13:02 PM 38.4575 -79.7597 49° Northeast 270 311 23,000  Level Washington Center
Sun 12:14:03 PM 38.5039 -79.6856 51° Northeast 270 311 23,000  Level Washington Center
Sun 12:15:04 PM 38.5522 -79.6111 50° Northeast 270 311 23,000  Level Washington Center
Sun 12:16:02 PM 38.6050 -79.5264 51° Northeast 270 311 23,000 -50 Level Washington Center
Sun 12:17:03 PM 38.6533 -79.4492 51° Northeast 275 316 22,900 -590 Descending Washington Center
Sun 12:18:04 PM 38.7058 -79.3719 49° Northeast 275 316 21,800 -1,190 Descending Washington Center
Sun 12:19:04 PM 38.7583 -79.2975 48° Northeast 275 316 20,500 -1,119 Descending Washington Center
Sun 12:20:02 PM 38.8089 -79.2147 52° Northeast 280 322 19,600 -850 Descending Washington Center
Sun 12:21:04 PM 38.8589 -79.1428 48° Northeast 280 322 18,800 -829 Descending Washington Center
Sun 12:22:05 PM 38.9050 -79.0647 53° Northeast 274 315 17,900 -706 Descending Washington Center
Sun 12:23:03 PM 38.9572 -78.9872 49° Northeast 274 315 17,400 -763 Descending Washington Center
Sun 12:24:03 PM 39.0072 -78.9119 49° Northeast 274 315 16,400 -942 Descending Washington Center
Sun 12:25:04 PM 39.0550 -78.8475 46° Northeast 269 310 15,500 -850 Descending Washington Center
Sun 12:26:03 PM 39.1006 -78.7772 50° Northeast 262 302 14,700 -793 Descending Washington Center
Sun 12:27:05 PM 39.1461 -78.7042 51° Northeast 256 295 13,900 -908 Descending Washington Center
Sun 12:28:02 PM 39.1981 -78.6289 48° Northeast 256 295 12,900 -1,179 Descending Washington Center
Sun 12:29:02 PM 39.2461 -78.5478 53° Northeast 269 310 11,600 -992 Descending Washington Center
Sun 12:30:03 PM 39.2894 -78.4825 49° Northeast 274 315 10,900 -829 Descending Washington Center
Sun 12:31:05 PM 39.3347 -78.4117 50° Northeast 262 302 9,900 -1,059 Descending Washington Center
Sun 12:32:02 PM 39.3697 -78.3406 58° Northeast 245 282 8,800 -1,068 Descending Washington Center
Sun 12:33:03 PM 39.4089 -78.2750 52° Northeast 235 270 7,800 -893 Descending Washington Center
Sun 12:34:03 PM 39.4436 -78.2117 55° Northeast 222 255 7,000 -744 Descending Washington Center
Sun 12:35:04 PM 39.4719 -78.1428 62° Northeast 217 250 6,300 -643 Descending Washington Center
Sun 12:36:51 PM 39.5333 -78.0333 54° Northeast 210 242 5,200 -634 Descending Potomac TRACON
Sun 12:37:45 PM 39.5667 -77.9667 57° Northeast 207 238 4,600 -632 Descending Potomac TRACON
Sun 12:38:45 PM 39.5833 -77.9000 72° East 207 238 4,000 -650 Descending Potomac TRACON
Sun 12:39:45 PM 39.6167 -77.8333 57° Northeast 215 247 3,300 -632 Descending Potomac TRACON
Sun 12:40:39 PM 39.6333 -77.7667 72° East 209 241 2,800 -278 Descending Potomac TRACON
Sun 12:41:33 PM 39.6500 -77.7167 67° East 187 215 2,800 -350 Level Potomac TRACON
Sun 12:42:39 PM 39.6833 -77.6667 49° Northeast 155 178 2,100 -600 Descending Potomac TRACON
Sun 12:43:33 PM 39.7000 -77.6667 360° North 130 150 1,600 -556 Descending Potomac TRACON
Sun 12:45:00 PM 39.7000 -77.7167 142° Southeast  Level FlightAware Approximate
Sun 12:52:00 PM 39.7085 -77.7265 142° Southeast  Level Estimated
Sun 12:53:00 PM 39.7085 -77.7265 142° Southeast  Level Estimated

Login

Don't have an account? Register now (free) for customized features, flight alerts, and more!